This is the latest recevied weather packets stored in our database for station/object VE3VGJ. If no packets are shown the sender has not sent any weather packets the latest 10 day(s).
| Time | Temp. | Humidity | Pressure | Rain* | Wind** | Luminosity | Snow |
|---|---|---|---|---|---|---|---|
| 1778176389 | 8.33° C | 59% | 1011.1 hPa | 0 mm | - | 536 W/m² | - |
| 1778176086 | 7.78° C | 59% | 1010.9 hPa | 0 mm | - | 700 W/m² | - |
| 1778175784 | 7.78° C | 60% | 1011.2 hPa | 0 mm | - | 299 W/m² | - |
| 1778175481 | 7.78° C | 60% | 1011.4 hPa | 0 mm | - | 312 W/m² | - |
| 1778175178 | 7.78° C | 61% | 1011.4 hPa | 0 mm | - | 234 W/m² | - |
| 1778174874 | 7.78° C | 62% | 1011.4 hPa | 0 mm | - | 165 W/m² | - |
| 1778174571 | 7.78° C | 61% | 1011.3 hPa | 0 mm | - | 182 W/m² | - |
| 1778174267 | 8.33° C | 60% | 1011.4 hPa | 0 mm | - | 262 W/m² | - |
| 1778173964 | 8.89° C | 59% | 1011.3 hPa | 0 mm | - | 1116 W/m² | - |
| 1778173661 | 8.89° C | 60% | 1011.3 hPa | 0 mm | - | 698 W/m² | - |
| 1778173358 | 8.89° C | 64% | 1011.5 hPa | 0 mm | - | 1108 W/m² | - |
| 1778173053 | 8.33° C | 63% | 1011.4 hPa | 0 mm | - | 1032 W/m² | - |
| 1778172750 | 8.33° C | 61% | 1011.5 hPa | 0 mm | - | 511 W/m² | - |
| 1778172446 | 8.89° C | 61% | 1011.7 hPa | 0 mm | - | 1016 W/m² | - |
| 1778172143 | 9.44° C | 62% | 1011.5 hPa | 0 mm | - | 352 W/m² | - |
| 1778171840 | 8.89° C | 65% | 1011.6 hPa | 0 mm | - | 1015 W/m² | - |
| 1778171538 | 8.89° C | 65% | 1011.7 hPa | 0 mm | - | 972 W/m² | - |
| 1778171234 | 8.33° C | 66% | 1011.6 hPa | 0 mm | - | 284 W/m² | - |
| 1778170930 | 9.44° C | 62% | 1011.7 hPa | 0 mm | - | 409 W/m² | - |
| 1778170627 | 8.89° C | 63% | 1011.6 hPa | 0 mm | - | 662 W/m² | - |
| 1778170323 | 8.33° C | 66% | 1011.7 hPa | 0 mm | - | 1062 W/m² | - |
| 1778170019 | 9.44° C | 62% | 1011.6 hPa | 0 mm | - | 575 W/m² | - |
| 1778169716 | 9.44° C | 62% | 1011.7 hPa | 0 mm | - | 907 W/m² | - |
| 1778169411 | 9.44° C | 65% | 1011.7 hPa | 0 mm | - | 994 W/m² | - |
| 1778169108 | 8.89° C | 66% | 1011.7 hPa | 0 mm | - | 940 W/m² | - |
* Rain latest hour (hover to see other rain measurements)
** Current wind speed in m/s (hover to see current wind gust speed)